sensor_id;sensor_type;location;lat;lon;timestamp;temperature;humidity
18131;DHT22;9191;54.324;10.126;2022-12-18T00:02:04;-2.80;99.90
18131;DHT22;9191;54.324;10.126;2022-12-18T00:04:31;-2.80;99.90
18131;DHT22;9191;54.324;10.126;2022-12-18T00:06:57;-2.80;99.90
18131;DHT22;9191;54.324;10.126;2022-12-18T00:09:24;-2.90;99.90
18131;DHT22;9191;54.324;10.126;2022-12-18T00:11:51;-2.90;99.90
18131;DHT22;9191;54.324;10.126;2022-12-18T00:14:18;-2.90;99.90
18131;DHT22;9191;54.324;10.126;2022-12-18T00:16:46;-3.00;99.90
18131;DHT22;9191;54.324;10.126;2022-12-18T00:19:13;-3.00;99.90
18131;DHT22;9191;54.324;10.126;2022-12-18T00:21:43;-3.00;99.90
18131;DHT22;9191;54.324;10.126;2022-12-18T00:24:10;-3.00;99.90
18131;DHT22;9191;54.324;10.126;2022-12-18T00:26:37;-3.10;99.90
18131;DHT22;9191;54.324;10.126;2022-12-18T00:29:05;-3.10;99.90
18131;DHT22;9191;54.324;10.126;2022-12-18T00:31:34;-3.20;99.90
18131;DHT22;9191;54.324;10.126;2022-12-18T00:34:02;-3.20;99.90
18131;DHT22;9191;54.324;10.126;2022-12-18T00:36:29;-3.10;99.90
18131;DHT22;9191;54.324;10.126;2022-12-18T00:38:57;-3.20;99.90
18131;DHT22;9191;54.324;10.126;2022-12-18T00:41:27;-3.10;99.90
18131;DHT22;9191;54.324;10.126;2022-12-18T00:44:12;-3.00;99.90
18131;DHT22;9191;54.324;10.126;2022-12-18T00:46:39;-3.20;99.90
18131;DHT22;9191;54.324;10.126;2022-12-18T00:49:07;-3.20;99.90
18131;DHT22;9191;54.324;10.126;2022-12-18T00:51:34;-3.20;99.90
18131;DHT22;9191;54.324;10.126;2022-12-18T00:54:00;-3.20;99.90
18131;DHT22;9191;54.324;10.126;2022-12-18T00:56:27;-3.20;99.90
18131;DHT22;9191;54.324;10.126;2022-12-18T00:58:54;-3.10;99.90
18131;DHT22;9191;54.324;10.126;2022-12-18T01:01:20;-3.20;99.90
18131;DHT22;9191;54.324;10.126;2022-12-18T01:03:47;-3.20;99.90
18131;DHT22;9191;54.324;10.126;2022-12-18T01:06:15;-3.30;99.90
18131;DHT22;9191;54.324;10.126;2022-12-18T01:08:42;-3.30;99.90
18131;DHT22;9191;54.324;10.126;2022-12-18T01:11:09;-3.30;99.90
18131;DHT22;9191;54.324;10.126;2022-12-18T01:13:37;-3.40;99.90
18131;DHT22;9191;54.324;10.126;2022-12-18T01:16:04;-3.40;99.90
18131;DHT22;9191;54.324;10.126;2022-12-18T01:18:30;-3.40;99.90
18131;DHT22;9191;54.324;10.126;2022-12-18T01:20:57;-3.30;99.90
18131;DHT22;9191;54.324;10.126;2022-12-18T01:23:25;-3.30;99.90
18131;DHT22;9191;54.324;10.126;2022-12-18T01:25:52;-3.30;99.90
18131;DHT22;9191;54.324;10.126;2022-12-18T01:28:18;-3.40;99.90
18131;DHT22;9191;54.324;10.126;2022-12-18T01:30:45;-3.30;99.90
18131;DHT22;9191;54.324;10.126;2022-12-18T01:33:12;-3.30;99.90
18131;DHT22;9191;54.324;10.126;2022-12-18T01:35:42;-3.40;99.90
18131;DHT22;9191;54.324;10.126;2022-12-18T01:38:09;-3.30;99.90
18131;DHT22;9191;54.324;10.126;2022-12-18T01:40:37;-3.40;99.90
18131;DHT22;9191;54.324;10.126;2022-12-18T01:43:03;-3.30;99.90
18131;DHT22;9191;54.324;10.126;2022-12-18T01:45:31;-3.30;99.90
18131;DHT22;9191;54.324;10.126;2022-12-18T01:47:58;-3.30;99.90
18131;DHT22;9191;54.324;10.126;2022-12-18T01:50:27;-3.30;99.90
18131;DHT22;9191;54.324;10.126;2022-12-18T01:52:55;-3.30;99.90
18131;DHT22;9191;54.324;10.126;2022-12-18T01:55:23;-3.40;99.90
18131;DHT22;9191;54.324;10.126;2022-12-18T01:57:54;-3.40;99.90
18131;DHT22;9191;54.324;10.126;2022-12-18T02:00:21;-3.30;99.90
18131;DHT22;9191;54.324;10.126;2022-12-18T02:02:48;-3.40;99.90
18131;DHT22;9191;54.324;10.126;2022-12-18T02:05:16;-3.40;99.90
18131;DHT22;9191;54.324;10.126;2022-12-18T02:07:45;-3.40;99.90
18131;DHT22;9191;54.324;10.126;2022-12-18T02:10:18;-3.40;99.90
18131;DHT22;9191;54.324;10.126;2022-12-18T02:12:48;-3.40;99.90
18131;DHT22;9191;54.324;10.126;2022-12-18T02:15:18;-3.40;99.90
18131;DHT22;9191;54.324;10.126;2022-12-18T02:17:47;-3.40;99.90
18131;DHT22;9191;54.324;10.126;2022-12-18T02:20:16;-3.40;99.90
18131;DHT22;9191;54.324;10.126;2022-12-18T02:22:48;-3.30;99.90
18131;DHT22;9191;54.324;10.126;2022-12-18T02:25:25;-3.30;99.90
18131;DHT22;9191;54.324;10.126;2022-12-18T02:27:57;-3.40;99.90
18131;DHT22;9191;54.324;10.126;2022-12-18T02:30:25;-3.40;99.90
18131;DHT22;9191;54.324;10.126;2022-12-18T02:32:53;-3.40;99.90
18131;DHT22;9191;54.324;10.126;2022-12-18T02:35:22;-3.30;99.90
18131;DHT22;9191;54.324;10.126;2022-12-18T02:37:50;-3.30;99.90
18131;DHT22;9191;54.324;10.126;2022-12-18T02:40:17;-3.40;99.90
18131;DHT22;9191;54.324;10.126;2022-12-18T02:42:45;-3.40;99.90
18131;DHT22;9191;54.324;10.126;2022-12-18T02:45:13;-3.50;99.90
18131;DHT22;9191;54.324;10.126;2022-12-18T02:47:42;-3.50;99.90
18131;DHT22;9191;54.324;10.126;2022-12-18T02:50:11;-3.40;99.90
18131;DHT22;9191;54.324;10.126;2022-12-18T02:52:41;-3.40;99.90
18131;DHT22;9191;54.324;10.126;2022-12-18T02:55:18;-3.40;99.90
18131;DHT22;9191;54.324;10.126;2022-12-18T02:57:46;-3.50;99.90
18131;DHT22;9191;54.324;10.126;2022-12-18T03:00:16;-3.50;99.90
18131;DHT22;9191;54.324;10.126;2022-12-18T03:02:45;-3.50;99.90
18131;DHT22;9191;54.324;10.126;2022-12-18T03:05:17;-3.40;99.90
18131;DHT22;9191;54.324;10.126;2022-12-18T03:07:47;-3.50;99.90
18131;DHT22;9191;54.324;10.126;2022-12-18T03:10:16;-3.50;99.90
18131;DHT22;9191;54.324;10.126;2022-12-18T03:12:45;-3.50;99.90
18131;DHT22;9191;54.324;10.126;2022-12-18T03:15:16;-3.50;99.90
18131;DHT22;9191;54.324;10.126;2022-12-18T03:17:46;-3.50;99.90
18131;DHT22;9191;54.324;10.126;2022-12-18T03:20:16;-3.40;99.90
18131;DHT22;9191;54.324;10.126;2022-12-18T03:22:44;-3.40;99.90
18131;DHT22;9191;54.324;10.126;2022-12-18T03:25:13;-3.40;99.90
18131;DHT22;9191;54.324;10.126;2022-12-18T03:27:41;-3.40;99.90
18131;DHT22;9191;54.324;10.126;2022-12-18T03:30:10;-3.40;99.90
18131;DHT22;9191;54.324;10.126;2022-12-18T03:32:41;-3.40;99.90
18131;DHT22;9191;54.324;10.126;2022-12-18T03:35:09;-3.50;99.90
18131;DHT22;9191;54.324;10.126;2022-12-18T03:37:37;-3.30;99.90
18131;DHT22;9191;54.324;10.126;2022-12-18T03:40:04;-3.40;99.90
18131;DHT22;9191;54.324;10.126;2022-12-18T03:42:32;-3.50;99.90
18131;DHT22;9191;54.324;10.126;2022-12-18T03:45:02;-3.50;99.90
18131;DHT22;9191;54.324;10.126;2022-12-18T03:47:32;-3.60;99.90
18131;DHT22;9191;54.324;10.126;2022-12-18T03:50:04;-3.50;99.90
18131;DHT22;9191;54.324;10.126;2022-12-18T03:52:33;-3.50;99.90
18131;DHT22;9191;54.324;10.126;2022-12-18T03:55:02;-3.50;99.90
18131;DHT22;9191;54.324;10.126;2022-12-18T03:57:30;-3.50;99.90
18131;DHT22;9191;54.324;10.126;2022-12-18T03:59:59;-3.50;99.90
18131;DHT22;9191;54.324;10.126;2022-12-18T04:02:27;-3.50;99.90
18131;DHT22;9191;54.324;10.126;2022-12-18T04:04:56;-3.50;99.90
18131;DHT22;9191;54.324;10.126;2022-12-18T04:07:25;-3.60;99.90
18131;DHT22;9191;54.324;10.126;2022-12-18T04:09:52;-3.60;99.90
18131;DHT22;9191;54.324;10.126;2022-12-18T04:12:20;-3.60;99.90
18131;DHT22;9191;54.324;10.126;2022-12-18T04:14:47;-3.60;99.90
18131;DHT22;9191;54.324;10.126;2022-12-18T04:17:13;-3.60;99.90
18131;DHT22;9191;54.324;10.126;2022-12-18T04:19:40;-3.60;99.90
18131;DHT22;9191;54.324;10.126;2022-12-18T04:22:08;-3.60;99.90
18131;DHT22;9191;54.324;10.126;2022-12-18T04:24:36;-3.60;99.90
18131;DHT22;9191;54.324;10.126;2022-12-18T04:27:03;-3.60;99.90
18131;DHT22;9191;54.324;10.126;2022-12-18T04:29:30;-3.60;99.90
18131;DHT22;9191;54.324;10.126;2022-12-18T04:31:57;-3.60;99.90
18131;DHT22;9191;54.324;10.126;2022-12-18T04:34:23;-3.60;99.90
18131;DHT22;9191;54.324;10.126;2022-12-18T04:36:50;-3.50;99.90
18131;DHT22;9191;54.324;10.126;2022-12-18T04:39:16;-3.60;99.90
18131;DHT22;9191;54.324;10.126;2022-12-18T04:41:44;-3.60;99.90
18131;DHT22;9191;54.324;10.126;2022-12-18T04:44:11;-3.70;99.90
18131;DHT22;9191;54.324;10.126;2022-12-18T04:46:38;-3.60;99.90
18131;DHT22;9191;54.324;10.126;2022-12-18T04:49:04;-3.60;99.90
18131;DHT22;9191;54.324;10.126;2022-12-18T04:51:31;-3.70;99.90
18131;DHT22;9191;54.324;10.126;2022-12-18T04:53:58;-3.70;99.90
18131;DHT22;9191;54.324;10.126;2022-12-18T04:56:24;-3.70;99.90
18131;DHT22;9191;54.324;10.126;2022-12-18T04:58:52;-3.80;99.90
18131;DHT22;9191;54.324;10.126;2022-12-18T05:01:19;-3.70;99.90
18131;DHT22;9191;54.324;10.126;2022-12-18T05:03:46;-3.80;99.90
18131;DHT22;9191;54.324;10.126;2022-12-18T05:06:12;-3.80;99.90
18131;DHT22;9191;54.324;10.126;2022-12-18T05:08:39;-3.80;99.90
18131;DHT22;9191;54.324;10.126;2022-12-18T05:11:06;-3.80;99.90
18131;DHT22;9191;54.324;10.126;2022-12-18T05:13:34;-3.70;99.90
18131;DHT22;9191;54.324;10.126;2022-12-18T05:16:02;-3.80;99.90
18131;DHT22;9191;54.324;10.126;2022-12-18T05:18:29;-3.70;99.90
18131;DHT22;9191;54.324;10.126;2022-12-18T05:20:58;-3.70;99.90
18131;DHT22;9191;54.324;10.126;2022-12-18T05:23:25;-3.70;99.90
18131;DHT22;9191;54.324;10.126;2022-12-18T05:25:53;-3.70;99.90
18131;DHT22;9191;54.324;10.126;2022-12-18T05:28:20;-3.70;99.90
18131;DHT22;9191;54.324;10.126;2022-12-18T05:30:48;-3.70;99.90
18131;DHT22;9191;54.324;10.126;2022-12-18T05:33:16;-3.70;99.90
18131;DHT22;9191;54.324;10.126;2022-12-18T05:35:43;-3.80;99.90
18131;DHT22;9191;54.324;10.126;2022-12-18T05:38:10;-3.70;99.90
18131;DHT22;9191;54.324;10.126;2022-12-18T05:40:37;-3.80;99.90
18131;DHT22;9191;54.324;10.126;2022-12-18T05:43:03;-3.80;99.90
18131;DHT22;9191;54.324;10.126;2022-12-18T05:45:36;-3.80;99.90
18131;DHT22;9191;54.324;10.126;2022-12-18T05:48:03;-3.80;99.90
18131;DHT22;9191;54.324;10.126;2022-12-18T05:50:31;-3.70;99.90
18131;DHT22;9191;54.324;10.126;2022-12-18T05:52:59;-3.70;99.90
18131;DHT22;9191;54.324;10.126;2022-12-18T05:55:26;-3.80;99.90
18131;DHT22;9191;54.324;10.126;2022-12-18T05:57:56;-3.80;99.90
18131;DHT22;9191;54.324;10.126;2022-12-18T06:00:23;-3.70;99.90
18131;DHT22;9191;54.324;10.126;2022-12-18T06:02:53;-3.80;99.90
18131;DHT22;9191;54.324;10.126;2022-12-18T06:05:19;-3.80;99.90
18131;DHT22;9191;54.324;10.126;2022-12-18T06:07:48;-3.80;99.90
18131;DHT22;9191;54.324;10.126;2022-12-18T06:10:15;-3.80;99.90
18131;DHT22;9191;54.324;10.126;2022-12-18T06:12:41;-3.80;99.90
18131;DHT22;9191;54.324;10.126;2022-12-18T06:15:08;-3.80;99.90
18131;DHT22;9191;54.324;10.126;2022-12-18T06:17:38;-3.80;99.90
18131;DHT22;9191;54.324;10.126;2022-12-18T06:20:09;-3.90;99.90
18131;DHT22;9191;54.324;10.126;2022-12-18T06:22:35;-3.90;99.90
18131;DHT22;9191;54.324;10.126;2022-12-18T06:25:04;-3.90;99.90
18131;DHT22;9191;54.324;10.126;2022-12-18T06:27:31;-3.80;99.90
18131;DHT22;9191;54.324;10.126;2022-12-18T06:29:58;-3.90;99.90
18131;DHT22;9191;54.324;10.126;2022-12-18T06:32:25;-3.90;99.90
18131;DHT22;9191;54.324;10.126;2022-12-18T06:34:52;-3.90;99.90
18131;DHT22;9191;54.324;10.126;2022-12-18T06:37:19;-4.00;99.90
18131;DHT22;9191;54.324;10.126;2022-12-18T06:39:45;-4.00;99.90
18131;DHT22;9191;54.324;10.126;2022-12-18T06:42:13;-3.90;99.90
18131;DHT22;9191;54.324;10.126;2022-12-18T06:44:40;-3.90;99.90
18131;DHT22;9191;54.324;10.126;2022-12-18T06:47:07;-4.00;99.90
18131;DHT22;9191;54.324;10.126;2022-12-18T06:49:34;-3.90;99.90
18131;DHT22;9191;54.324;10.126;2022-12-18T06:52:00;-4.00;99.90
18131;DHT22;9191;54.324;10.126;2022-12-18T06:54:27;-4.00;99.90
18131;DHT22;9191;54.324;10.126;2022-12-18T06:56:54;-4.00;99.90
18131;DHT22;9191;54.324;10.126;2022-12-18T06:59:22;-4.00;99.90
18131;DHT22;9191;54.324;10.126;2022-12-18T07:01:48;-4.10;99.90
18131;DHT22;9191;54.324;10.126;2022-12-18T07:04:15;-4.10;99.90
18131;DHT22;9191;54.324;10.126;2022-12-18T07:06:42;-4.10;99.90
18131;DHT22;9191;54.324;10.126;2022-12-18T07:09:08;-4.00;99.90
18131;DHT22;9191;54.324;10.126;2022-12-18T07:11:35;-4.10;99.90
18131;DHT22;9191;54.324;10.126;2022-12-18T07:14:02;-4.10;99.90
18131;DHT22;9191;54.324;10.126;2022-12-18T07:16:33;-4.20;99.90
18131;DHT22;9191;54.324;10.126;2022-12-18T07:18:59;-4.20;99.90
18131;DHT22;9191;54.324;10.126;2022-12-18T07:21:26;-4.20;99.90
18131;DHT22;9191;54.324;10.126;2022-12-18T07:23:53;-4.20;99.90
18131;DHT22;9191;54.324;10.126;2022-12-18T07:26:20;-4.10;99.90
18131;DHT22;9191;54.324;10.126;2022-12-18T07:28:47;-4.20;99.90
18131;DHT22;9191;54.324;10.126;2022-12-18T07:31:16;-4.20;99.90
18131;DHT22;9191;54.324;10.126;2022-12-18T07:33:44;-4.20;99.90
18131;DHT22;9191;54.324;10.126;2022-12-18T07:36:11;-4.40;99.90
18131;DHT22;9191;54.324;10.126;2022-12-18T07:38:38;-4.30;99.90
18131;DHT22;9191;54.324;10.126;2022-12-18T07:41:07;-4.30;99.90
18131;DHT22;9191;54.324;10.126;2022-12-18T07:43:34;-4.20;99.90
18131;DHT22;9191;54.324;10.126;2022-12-18T07:46:01;-4.20;99.90
18131;DHT22;9191;54.324;10.126;2022-12-18T07:48:28;-4.30;99.90
18131;DHT22;9191;54.324;10.126;2022-12-18T07:50:58;-4.30;99.90
18131;DHT22;9191;54.324;10.126;2022-12-18T07:53:25;-4.20;99.90
18131;DHT22;9191;54.324;10.126;2022-12-18T07:55:54;-4.30;99.90
18131;DHT22;9191;54.324;10.126;2022-12-18T07:58:21;-4.30;99.90
18131;DHT22;9191;54.324;10.126;2022-12-18T08:00:47;-4.30;99.90
18131;DHT22;9191;54.324;10.126;2022-12-18T08:03:14;-3.90;99.90
18131;DHT22;9191;54.324;10.126;2022-12-18T08:05:43;-4.40;99.90
18131;DHT22;9191;54.324;10.126;2022-12-18T08:08:11;-4.40;99.90
18131;DHT22;9191;54.324;10.126;2022-12-18T08:10:38;-4.40;99.90
18131;DHT22;9191;54.324;10.126;2022-12-18T08:13:05;-4.40;99.90
18131;DHT22;9191;54.324;10.126;2022-12-18T08:15:32;-4.40;99.90
18131;DHT22;9191;54.324;10.126;2022-12-18T08:17:58;-4.30;99.90
18131;DHT22;9191;54.324;10.126;2022-12-18T08:20:25;-4.30;99.90
18131;DHT22;9191;54.324;10.126;2022-12-18T08:22:52;-4.20;99.90
18131;DHT22;9191;54.324;10.126;2022-12-18T08:25:22;-4.20;99.90
18131;DHT22;9191;54.324;10.126;2022-12-18T08:27:49;-4.10;99.90
18131;DHT22;9191;54.324;10.126;2022-12-18T08:30:16;-4.00;99.90
18131;DHT22;9191;54.324;10.126;2022-12-18T08:32:42;-3.90;99.90
18131;DHT22;9191;54.324;10.126;2022-12-18T08:35:09;-3.80;99.90
18131;DHT22;9191;54.324;10.126;2022-12-18T08:37:37;-3.70;99.90
18131;DHT22;9191;54.324;10.126;2022-12-18T08:40:04;-3.60;99.90
18131;DHT22;9191;54.324;10.126;2022-12-18T08:42:32;-3.60;99.90
18131;DHT22;9191;54.324;10.126;2022-12-18T08:45:16;-3.50;99.90
18131;DHT22;9191;54.324;10.126;2022-12-18T08:47:43;-3.50;99.90
18131;DHT22;9191;54.324;10.126;2022-12-18T08:50:10;-3.50;99.90
18131;DHT22;9191;54.324;10.126;2022-12-18T08:52:37;-3.30;99.90
18131;DHT22;9191;54.324;10.126;2022-12-18T08:55:04;-3.00;99.90
18131;DHT22;9191;54.324;10.126;2022-12-18T08:57:32;-2.70;99.90
18131;DHT22;9191;54.324;10.126;2022-12-18T08:59:59;-2.60;99.90
18131;DHT22;9191;54.324;10.126;2022-12-18T09:02:26;-2.60;99.90
18131;DHT22;9191;54.324;10.126;2022-12-18T09:04:52;-2.70;99.90
18131;DHT22;9191;54.324;10.126;2022-12-18T09:07:21;-2.90;99.90
18131;DHT22;9191;54.324;10.126;2022-12-18T09:09:47;-3.00;99.90
18131;DHT22;9191;54.324;10.126;2022-12-18T09:12:14;-3.20;99.90
18131;DHT22;9191;54.324;10.126;2022-12-18T09:14:42;-3.20;99.90
18131;DHT22;9191;54.324;10.126;2022-12-18T09:17:09;-3.20;99.90
18131;DHT22;9191;54.324;10.126;2022-12-18T09:19:35;-3.30;99.90
18131;DHT22;9191;54.324;10.126;2022-12-18T09:22:04;-3.40;99.90
18131;DHT22;9191;54.324;10.126;2022-12-18T09:24:31;-3.40;99.90
18131;DHT22;9191;54.324;10.126;2022-12-18T09:26:57;-3.40;99.90
18131;DHT22;9191;54.324;10.126;2022-12-18T09:29:24;-3.40;99.90
18131;DHT22;9191;54.324;10.126;2022-12-18T09:31:52;-3.30;99.90
18131;DHT22;9191;54.324;10.126;2022-12-18T09:34:19;-3.30;99.90
18131;DHT22;9191;54.324;10.126;2022-12-18T09:36:47;-3.50;99.90
18131;DHT22;9191;54.324;10.126;2022-12-18T09:39:13;-3.30;99.90
18131;DHT22;9191;54.324;10.126;2022-12-18T09:41:44;-3.30;99.90
18131;DHT22;9191;54.324;10.126;2022-12-18T09:44:15;-3.40;99.90
18131;DHT22;9191;54.324;10.126;2022-12-18T09:46:44;-3.40;99.90
18131;DHT22;9191;54.324;10.126;2022-12-18T09:49:13;-3.50;99.90
18131;DHT22;9191;54.324;10.126;2022-12-18T09:51:42;-3.40;99.90
18131;DHT22;9191;54.324;10.126;2022-12-18T09:54:14;-3.50;99.90
18131;DHT22;9191;54.324;10.126;2022-12-18T09:56:42;-3.40;99.90
18131;DHT22;9191;54.324;10.126;2022-12-18T09:59:15;-3.30;99.90
18131;DHT22;9191;54.324;10.126;2022-12-18T10:01:44;-3.40;99.90
18131;DHT22;9191;54.324;10.126;2022-12-18T10:04:12;-3.40;99.90
18131;DHT22;9191;54.324;10.126;2022-12-18T10:06:40;-3.30;99.90
18131;DHT22;9191;54.324;10.126;2022-12-18T10:09:08;-3.20;99.90
18131;DHT22;9191;54.324;10.126;2022-12-18T10:11:39;-3.10;99.90
18131;DHT22;9191;54.324;10.126;2022-12-18T10:14:09;-3.00;99.90
18131;DHT22;9191;54.324;10.126;2022-12-18T10:16:40;-3.00;99.90
18131;DHT22;9191;54.324;10.126;2022-12-18T10:19:14;-2.90;99.90
18131;DHT22;9191;54.324;10.126;2022-12-18T10:21:45;-2.90;99.90
18131;DHT22;9191;54.324;10.126;2022-12-18T10:24:17;-2.80;99.90
18131;DHT22;9191;54.324;10.126;2022-12-18T10:26:45;-2.60;99.90
18131;DHT22;9191;54.324;10.126;2022-12-18T10:29:14;-2.50;99.90
18131;DHT22;9191;54.324;10.126;2022-12-18T10:31:41;-2.40;99.90
18131;DHT22;9191;54.324;10.126;2022-12-18T10:34:10;-2.30;99.90
18131;DHT22;9191;54.324;10.126;2022-12-18T10:36:38;-2.30;99.90
18131;DHT22;9191;54.324;10.126;2022-12-18T10:39:15;-2.30;99.90
18131;DHT22;9191;54.324;10.126;2022-12-18T10:41:42;-2.20;99.90
18131;DHT22;9191;54.324;10.126;2022-12-18T10:46:54;-2.00;99.90
18131;DHT22;9191;54.324;10.126;2022-12-18T10:49:24;-1.90;99.90
18131;DHT22;9191;54.324;10.126;2022-12-18T10:52:05;-1.90;99.90
18131;DHT22;9191;54.324;10.126;2022-12-18T10:54:34;-1.80;99.90
18131;DHT22;9191;54.324;10.126;2022-12-18T10:57:13;-1.80;99.90
18131;DHT22;9191;54.324;10.126;2022-12-18T10:59:49;-1.90;99.90
18131;DHT22;9191;54.324;10.126;2022-12-18T11:02:27;-1.90;99.90
18131;DHT22;9191;54.324;10.126;2022-12-18T11:04:54;-2.10;99.90
18131;DHT22;9191;54.324;10.126;2022-12-18T11:07:22;-2.00;99.90
18131;DHT22;9191;54.324;10.126;2022-12-18T11:09:59;-2.00;99.90
18131;DHT22;9191;54.324;10.126;2022-12-18T11:12:26;-2.00;99.90
18131;DHT22;9191;54.324;10.126;2022-12-18T11:14:54;-1.90;99.90
18131;DHT22;9191;54.324;10.126;2022-12-18T11:17:22;-2.00;99.90
18131;DHT22;9191;54.324;10.126;2022-12-18T11:19:52;-2.00;99.90
18131;DHT22;9191;54.324;10.126;2022-12-18T11:22:21;-2.00;99.90
18131;DHT22;9191;54.324;10.126;2022-12-18T11:24:55;-1.90;99.90
18131;DHT22;9191;54.324;10.126;2022-12-18T11:27:22;-1.90;99.90
18131;DHT22;9191;54.324;10.126;2022-12-18T11:29:51;-1.80;99.90
18131;DHT22;9191;54.324;10.126;2022-12-18T11:32:24;-1.80;99.90
18131;DHT22;9191;54.324;10.126;2022-12-18T11:34:52;-1.90;99.90
18131;DHT22;9191;54.324;10.126;2022-12-18T11:37:22;-1.80;99.90
18131;DHT22;9191;54.324;10.126;2022-12-18T11:39:50;-1.90;99.90
18131;DHT22;9191;54.324;10.126;2022-12-18T11:42:21;-1.80;99.90
18131;DHT22;9191;54.324;10.126;2022-12-18T11:44:50;-1.80;99.90
18131;DHT22;9191;54.324;10.126;2022-12-18T11:47:21;-1.80;99.90
18131;DHT22;9191;54.324;10.126;2022-12-18T11:49:51;-1.80;99.90
18131;DHT22;9191;54.324;10.126;2022-12-18T11:52:19;-1.80;99.90
18131;DHT22;9191;54.324;10.126;2022-12-18T11:54:50;-1.70;99.90
18131;DHT22;9191;54.324;10.126;2022-12-18T11:57:18;-1.70;99.90
18131;DHT22;9191;54.324;10.126;2022-12-18T11:59:51;-1.70;99.90
18131;DHT22;9191;54.324;10.126;2022-12-18T12:02:30;-1.30;99.90
18131;DHT22;9191;54.324;10.126;2022-12-18T12:05:13;-1.50;99.90
18131;DHT22;9191;54.324;10.126;2022-12-18T12:07:43;-1.50;99.90
18131;DHT22;9191;54.324;10.126;2022-12-18T12:10:26;-1.40;99.90
18131;DHT22;9191;54.324;10.126;2022-12-18T12:12:59;-1.50;99.90
18131;DHT22;9191;54.324;10.126;2022-12-18T12:15:32;-1.20;99.90
18131;DHT22;9191;54.324;10.126;2022-12-18T12:18:01;-0.60;99.90
18131;DHT22;9191;54.324;10.126;2022-12-18T12:20:33;-0.90;99.90
18131;DHT22;9191;54.324;10.126;2022-12-18T12:23:09;-0.80;99.90
18131;DHT22;9191;54.324;10.126;2022-12-18T12:25:41;-1.10;99.90
18131;DHT22;9191;54.324;10.126;2022-12-18T12:28:14;-1.30;99.90
18131;DHT22;9191;54.324;10.126;2022-12-18T12:30:48;-1.40;99.90
18131;DHT22;9191;54.324;10.126;2022-12-18T12:33:22;-1.50;99.90
18131;DHT22;9191;54.324;10.126;2022-12-18T12:35:56;-1.60;99.90
18131;DHT22;9191;54.324;10.126;2022-12-18T12:38:26;-1.60;99.90
18131;DHT22;9191;54.324;10.126;2022-12-18T12:40:56;-1.60;99.90
18131;DHT22;9191;54.324;10.126;2022-12-18T12:43:26;-1.70;99.90
18131;DHT22;9191;54.324;10.126;2022-12-18T12:45:55;-1.70;99.90
18131;DHT22;9191;54.324;10.126;2022-12-18T12:48:35;-1.60;99.90
18131;DHT22;9191;54.324;10.126;2022-12-18T12:51:03;-1.60;99.90
18131;DHT22;9191;54.324;10.126;2022-12-18T12:53:31;-1.70;99.90
18131;DHT22;9191;54.324;10.126;2022-12-18T12:55:59;-1.50;99.90
18131;DHT22;9191;54.324;10.126;2022-12-18T12:58:28;-1.50;99.90
18131;DHT22;9191;54.324;10.126;2022-12-18T13:01:01;-1.60;99.90
18131;DHT22;9191;54.324;10.126;2022-12-18T13:03:34;-1.50;99.90
18131;DHT22;9191;54.324;10.126;2022-12-18T13:06:03;-1.50;99.90
18131;DHT22;9191;54.324;10.126;2022-12-18T13:08:34;-1.50;99.90
18131;DHT22;9191;54.324;10.126;2022-12-18T13:11:27;-1.60;99.90
18131;DHT22;9191;54.324;10.126;2022-12-18T13:14:21;-1.50;99.90
18131;DHT22;9191;54.324;10.126;2022-12-18T13:16:50;-1.60;99.90
18131;DHT22;9191;54.324;10.126;2022-12-18T13:19:23;-1.50;99.90
18131;DHT22;9191;54.324;10.126;2022-12-18T13:21:54;-1.50;99.90
18131;DHT22;9191;54.324;10.126;2022-12-18T13:24:23;-1.50;99.90
18131;DHT22;9191;54.324;10.126;2022-12-18T13:26:51;-1.60;99.90
18131;DHT22;9191;54.324;10.126;2022-12-18T13:32:01;-1.60;99.90
18131;DHT22;9191;54.324;10.126;2022-12-18T13:34:28;-1.70;99.90
18131;DHT22;9191;54.324;10.126;2022-12-18T13:36:56;-1.70;99.90
18131;DHT22;9191;54.324;10.126;2022-12-18T13:39:31;-1.80;99.90
18131;DHT22;9191;54.324;10.126;2022-12-18T13:44:57;-1.90;99.90
18131;DHT22;9191;54.324;10.126;2022-12-18T13:47:27;-1.90;99.90
18131;DHT22;9191;54.324;10.126;2022-12-18T13:49:54;-2.10;99.90
18131;DHT22;9191;54.324;10.126;2022-12-18T13:52:22;-2.10;99.90
18131;DHT22;9191;54.324;10.126;2022-12-18T13:54:50;-2.20;99.90
18131;DHT22;9191;54.324;10.126;2022-12-18T13:57:27;-2.20;99.90
18131;DHT22;9191;54.324;10.126;2022-12-18T13:59:54;-2.20;99.90
18131;DHT22;9191;54.324;10.126;2022-12-18T14:02:22;-2.20;99.90
18131;DHT22;9191;54.324;10.126;2022-12-18T14:04:52;-2.30;99.90
18131;DHT22;9191;54.324;10.126;2022-12-18T14:07:20;-2.40;99.90
18131;DHT22;9191;54.324;10.126;2022-12-18T14:09:49;-2.40;99.90
18131;DHT22;9191;54.324;10.126;2022-12-18T14:12:17;-2.50;99.90
18131;DHT22;9191;54.324;10.126;2022-12-18T14:15:02;-2.50;99.90
18131;DHT22;9191;54.324;10.126;2022-12-18T14:17:31;-2.50;99.90
18131;DHT22;9191;54.324;10.126;2022-12-18T14:20:00;-2.60;99.90
18131;DHT22;9191;54.324;10.126;2022-12-18T14:22:26;-2.60;99.90
18131;DHT22;9191;54.324;10.126;2022-12-18T14:25:13;-2.70;99.90
18131;DHT22;9191;54.324;10.126;2022-12-18T14:27:41;-2.70;99.90
18131;DHT22;9191;54.324;10.126;2022-12-18T14:30:22;-2.70;99.90
18131;DHT22;9191;54.324;10.126;2022-12-18T14:32:58;-2.80;99.90
18131;DHT22;9191;54.324;10.126;2022-12-18T14:35:27;-2.80;99.90
18131;DHT22;9191;54.324;10.126;2022-12-18T14:37:53;-2.80;99.90
18131;DHT22;9191;54.324;10.126;2022-12-18T14:40:20;-2.80;99.90
18131;DHT22;9191;54.324;10.126;2022-12-18T14:42:47;-2.70;99.90
18131;DHT22;9191;54.324;10.126;2022-12-18T14:45:33;-2.80;99.90
18131;DHT22;9191;54.324;10.126;2022-12-18T14:48:05;-2.70;99.90
18131;DHT22;9191;54.324;10.126;2022-12-18T14:50:34;-2.70;99.90
18131;DHT22;9191;54.324;10.126;2022-12-18T14:53:00;-2.80;99.90
18131;DHT22;9191;54.324;10.126;2022-12-18T14:55:28;-2.80;99.90
18131;DHT22;9191;54.324;10.126;2022-12-18T14:57:58;-2.80;99.90
18131;DHT22;9191;54.324;10.126;2022-12-18T15:00:25;-2.80;99.90
18131;DHT22;9191;54.324;10.126;2022-12-18T15:02:52;-2.80;99.90
18131;DHT22;9191;54.324;10.126;2022-12-18T15:05:19;-2.90;99.90
18131;DHT22;9191;54.324;10.126;2022-12-18T15:07:48;-2.90;99.90
18131;DHT22;9191;54.324;10.126;2022-12-18T15:10:16;-3.00;99.90
18131;DHT22;9191;54.324;10.126;2022-12-18T15:12:44;-3.00;99.90
18131;DHT22;9191;54.324;10.126;2022-12-18T15:18:03;-3.00;99.90
18131;DHT22;9191;54.324;10.126;2022-12-18T15:20:32;-3.00;99.90
18131;DHT22;9191;54.324;10.126;2022-12-18T15:23:01;-3.00;99.90
18131;DHT22;9191;54.324;10.126;2022-12-18T15:25:29;-3.00;99.90
18131;DHT22;9191;54.324;10.126;2022-12-18T15:27:57;-2.90;99.90
18131;DHT22;9191;54.324;10.126;2022-12-18T15:30:24;-3.00;99.90
18131;DHT22;9191;54.324;10.126;2022-12-18T15:32:51;-3.00;99.90
18131;DHT22;9191;54.324;10.126;2022-12-18T15:35:20;-3.00;99.90
18131;DHT22;9191;54.324;10.126;2022-12-18T15:37:48;-3.10;99.90
18131;DHT22;9191;54.324;10.126;2022-12-18T15:40:17;-3.10;99.90
18131;DHT22;9191;54.324;10.126;2022-12-18T15:42:44;-3.10;99.90
18131;DHT22;9191;54.324;10.126;2022-12-18T15:45:29;-3.10;99.90
18131;DHT22;9191;54.324;10.126;2022-12-18T15:47:55;-3.10;99.90
18131;DHT22;9191;54.324;10.126;2022-12-18T15:50:22;-3.00;99.90
18131;DHT22;9191;54.324;10.126;2022-12-18T15:52:49;-3.10;99.90